Time;durP1;ratioP1;P1;durP2;ratioP2;P2;SDS_P1;SDS_P2;PMS_P1;PMS_P2;Temp;Humidity;BMP_temperature;BMP_pressure;BME280_temperature;BME280_humidity;BME280_pressure;Samples;Min_cycle;Max_cycle;Signal;HPM_P1;HPM_P2
2023/05/15 00:01:31;;;;;;;;;;;;;;;12.99;60.88;101199.59;108022;1259;125172;-82
2023/05/15 00:03:58;;;;;;;;;;;;;;;12.97;61.05;101202.00;109003;1254;67024;-82
2023/05/15 00:06:27;;;;;;;;;;;;;;;12.95;61.07;101189.61;108945;1260;72717;-81
2023/05/15 00:08:53;;;;;;;;;;;;;;;12.93;61.05;101189.23;108769;1260;124805;-81
2023/05/15 00:11:22;;;;;;;;;;;;;;;12.90;61.14;101182.46;109138;1254;59349;-81
2023/05/15 00:13:49;;;;;;;;;;;;;;;12.87;61.19;101174.47;108843;1257;124191;-82
2023/05/15 00:16:16;;;;;;;;;;;;;;;12.85;61.28;101171.95;108124;1254;67055;-83
2023/05/15 00:18:43;;;;;;;;;;;;;;;12.83;61.34;101172.09;107560;1260;268100;-82
2023/05/15 00:21:13;;;;;;;;;;;;;;;12.81;61.36;101171.33;107761;1254;124210;-83
2023/05/15 00:23:40;;;;;;;;;;;;;;;12.79;61.37;101174.45;107878;1257;61205;-83
2023/05/15 00:26:07;;;;;;;;;;;;;;;12.77;61.43;101171.25;107657;1254;124539;-83
2023/05/15 00:28:34;;;;;;;;;;;;;;;12.75;61.48;101171.57;107912;1257;66844;-83
2023/05/15 00:31:01;;;;;;;;;;;;;;;12.73;61.50;101166.39;107606;1254;124375;-84
2023/05/15 00:33:28;;;;;;;;;;;;;;;12.71;61.62;101167.77;107772;1255;61280;-83
2023/05/15 00:35:55;;;;;;;;;;;;;;;12.67;61.71;101160.45;107817;1254;61218;-85
2023/05/15 00:38:22;;;;;;;;;;;;;;;12.63;61.76;101159.49;107922;1254;124131;-84
2023/05/15 00:40:49;;;;;;;;;;;;;;;12.60;61.82;101155.38;107933;1254;66840;-85
2023/05/15 00:43:16;;;;;;;;;;;;;;;12.57;61.87;101147.20;107752;1257;124422;-85
2023/05/15 00:45:45;;;;;;;;;;;;;;;12.55;61.94;101148.72;107604;1260;62185;-86
2023/05/15 00:51:13;;;;;;;;;;;;;;;12.51;62.11;101143.17;107701;1256;124532;-86
2023/05/15 00:53:46;;;;;;;;;;;;;;;12.50;62.13;101145.61;107691;1255;67166;-84
2023/05/15 00:56:15;;;;;;;;;;;;;;;12.49;62.19;101139.09;107662;1254;124367;-84
2023/05/15 00:58:43;;;;;;;;;;;;;;;12.48;62.17;101139.58;107955;1254;59571;-83
2023/05/15 01:01:13;;;;;;;;;;;;;;;12.47;62.29;101136.23;107755;1256;127134;-83
2023/05/15 01:03:40;;;;;;;;;;;;;;;12.48;62.32;101131.84;107595;1257;74689;-84
2023/05/15 01:06:07;;;;;;;;;;;;;;;12.47;62.28;101130.23;107519;1254;67077;-83
2023/05/15 01:08:38;;;;;;;;;;;;;;;12.47;62.38;101125.13;107468;1254;125200;-84
2023/05/15 01:11:07;;;;;;;;;;;;;;;12.45;62.32;101127.02;107812;1253;59860;-84
2023/05/15 01:13:34;;;;;;;;;;;;;;;12.43;62.45;101125.04;107835;1253;124655;-83
2023/05/15 01:16:01;;;;;;;;;;;;;;;12.41;62.47;101125.87;107924;1254;74565;-82
2023/05/15 01:18:31;;;;;;;;;;;;;;;12.39;62.58;101123.02;107994;1257;67272;-83
2023/05/15 01:20:58;;;;;;;;;;;;;;;12.38;62.58;101124.57;107853;1256;124618;-83
2023/05/15 01:23:47;;;;;;;;;;;;;;;12.38;62.60;101123.32;108232;1256;60419;-82
2023/05/15 01:26:14;;;;;;;;;;;;;;;12.37;62.76;101121.73;107529;1258;124505;-82
2023/05/15 01:28:50;;;;;;;;;;;;;;;12.37;62.77;101118.39;107913;1257;73129;-83
2023/05/15 01:31:18;;;;;;;;;;;;;;;12.37;62.81;101117.50;107917;1254;124731;-82
2023/05/15 01:33:46;;;;;;;;;;;;;;;12.36;62.94;101120.30;108316;1254;71275;-82
2023/05/15 01:36:13;;;;;;;;;;;;;;;12.35;63.01;101114.27;107605;1257;60428;-82
2023/05/15 01:38:47;;;;;;;;;;;;;;;12.34;62.89;101112.86;107739;1254;124242;-82
2023/05/15 01:41:15;;;;;;;;;;;;;;;12.32;63.08;101113.34;107953;1255;75276;-82
2023/05/15 01:43:43;;;;;;;;;;;;;;;12.31;63.05;101110.16;107849;1254;124294;-82
2023/05/15 01:46:14;;;;;;;;;;;;;;;12.30;63.13;101105.36;107873;1254;72945;-82
2023/05/15 01:48:44;;;;;;;;;;;;;;;12.28;63.07;101104.45;108172;1254;60756;-82
2023/05/15 01:51:11;;;;;;;;;;;;;;;12.26;63.18;101103.17;108211;1256;125054;-82
2023/05/15 01:53:38;;;;;;;;;;;;;;;12.23;63.25;101097.48;108244;1255;74358;-81
2023/05/15 01:56:05;;;;;;;;;;;;;;;12.21;63.38;101093.89;107553;1254;124287;-82
2023/05/15 01:58:32;;;;;;;;;;;;;;;12.19;63.36;101091.74;108131;1258;72693;-82
2023/05/15 02:00:59;;;;;;;;;;;;;;;12.18;63.46;101091.36;107987;1256;124919;-82
2023/05/15 02:03:26;;;;;;;;;;;;;;;12.16;63.40;101087.11;108222;1254;59669;-82
2023/05/15 02:05:55;;;;;;;;;;;;;;;12.15;63.55;101089.02;108111;1258;74997;-82
2023/05/15 02:08:24;;;;;;;;;;;;;;;12.14;63.69;101083.20;107865;1254;124607;-82
2023/05/15 02:10:51;;;;;;;;;;;;;;;12.15;63.71;101084.77;107977;1254;71376;-81
2023/05/15 02:13:18;;;;;;;;;;;;;;;12.15;63.73;101083.20;107889;1254;125121;-81
2023/05/15 02:15:45;;;;;;;;;;;;;;;12.15;63.74;101084.61;108108;1255;60127;-81
2023/05/15 02:18:12;;;;;;;;;;;;;;;12.15;63.84;101085.15;108174;1254;74687;-81
2023/05/15 02:20:39;;;;;;;;;;;;;;;12.16;63.83;101082.34;108111;1257;124965;-82
2023/05/15 02:23:06;;;;;;;;;;;;;;;12.17;63.88;101082.02;108226;1254;72561;-83
2023/05/15 02:25:37;;;;;;;;;;;;;;;12.19;63.92;101077.32;108182;1254;125358;-81
2023/05/15 02:28:05;;;;;;;;;;;;;;;12.21;63.99;101069.80;108358;1254;59393;-81
2023/05/15 02:30:38;;;;;;;;;;;;;;;12.23;63.99;101067.73;108105;1256;74424;-81
2023/05/15 02:33:05;;;;;;;;;;;;;;;12.24;64.07;101063.02;107853;1257;124766;-82
2023/05/15 02:35:36;;;;;;;;;;;;;;;12.28;64.13;101059.23;108144;1254;72658;-83
2023/05/15 02:38:07;;;;;;;;;;;;;;;12.31;64.08;101060.17;108035;1254;125223;-84
2023/05/15 02:40:34;;;;;;;;;;;;;;;12.35;64.05;101050.07;108302;1254;61065;-84
2023/05/15 02:43:01;;;;;;;;;;;;;;;12.40;63.98;101047.70;108079;1254;125294;-83
2023/05/15 02:45:27;;;;;;;;;;;;;;;12.46;64.04;101044.33;107876;1257;67283;-83
2023/05/15 02:47:54;;;;;;;;;;;;;;;12.50;63.86;101041.59;108041;1254;70557;-84
2023/05/15 02:50:21;;;;;;;;;;;;;;;12.53;63.81;101039.89;107843;1255;124514;-84
2023/05/15 02:52:48;;;;;;;;;;;;;;;12.56;63.80;101037.33;108067;1254;60265;-83
2023/05/15 02:55:17;;;;;;;;;;;;;;;12.59;63.77;101032.45;107761;1256;124654;-83
2023/05/15 02:57:46;;;;;;;;;;;;;;;12.64;63.60;101033.27;107911;1254;66197;-83
2023/05/15 03:00:15;;;;;;;;;;;;;;;12.67;63.54;101027.50;107737;1262;71356;-83
2023/05/15 03:02:43;;;;;;;;;;;;;;;12.68;63.57;101022.42;107758;1254;124330;-84
2023/05/15 03:05:10;;;;;;;;;;;;;;;12.68;63.56;101019.26;107858;1256;59568;-83
2023/05/15 03:07:37;;;;;;;;;;;;;;;12.70;63.47;101017.54;107673;1254;124506;-84
2023/05/15 03:10:04;;;;;;;;;;;;;;;12.71;63.51;101012.45;108092;1254;67546;-84
2023/05/15 03:12:31;;;;;;;;;;;;;;;12.72;63.46;101007.89;108099;1254;72340;-83
2023/05/15 03:15:00;;;;;;;;;;;;;;;12.73;63.42;101001.23;107827;1257;124714;-84
2023/05/15 03:17:33;;;;;;;;;;;;;;;12.75;63.37;101003.55;107931;1254;60454;-84
2023/05/15 03:20:03;;;;;;;;;;;;;;;12.76;63.37;101004.11;107787;1254;124704;-83
2023/05/15 03:22:30;;;;;;;;;;;;;;;12.79;63.21;101007.34;107789;1254;65800;-84
2023/05/15 03:25:11;;;;;;;;;;;;;;;12.81;63.17;101007.02;107688;1256;71316;-83
2023/05/15 03:27:39;;;;;;;;;;;;;;;12.85;63.15;101002.52;107762;1256;61388;-83
2023/05/15 03:30:07;;;;;;;;;;;;;;;12.88;63.05;100999.23;107785;1254;61294;-84
2023/05/15 03:32:34;;;;;;;;;;;;;;;12.90;62.99;100999.45;107830;1254;124071;-85
2023/05/15 03:35:01;;;;;;;;;;;;;;;12.92;62.95;100994.92;107835;1254;66676;-84
2023/05/15 03:37:28;;;;;;;;;;;;;;;12.95;63.04;100989.85;107515;1254;124857;-83
2023/05/15 03:39:58;;;;;;;;;;;;;;;12.97;63.10;100987.25;107707;1256;60822;-84
2023/05/15 03:42:28;;;;;;;;;;;;;;;12.98;63.09;100981.11;107803;1254;59976;-84
2023/05/15 03:44:56;;;;;;;;;;;;;;;12.98;63.01;100979.35;107882;1255;124620;-82
2023/05/15 03:47:23;;;;;;;;;;;;;;;12.99;63.04;100976.38;107518;1257;65341;-85
2023/05/15 03:49:52;;;;;;;;;;;;;;;13.01;63.01;100975.52;107376;1256;127171;-83
2023/05/15 03:52:19;;;;;;;;;;;;;;;13.05;63.04;100974.02;107601;1256;62053;-83
2023/05/15 03:54:47;;;;;;;;;;;;;;;13.08;62.86;100970.72;107791;1256;60120;-85
2023/05/15 03:57:16;;;;;;;;;;;;;;;13.12;62.66;100970.96;107666;1254;124016;-84
2023/05/15 03:59:44;;;;;;;;;;;;;;;13.15;62.62;100969.96;107636;1256;65593;-84
2023/05/15 04:02:11;;;;;;;;;;;;;;;13.19;62.30;100965.98;107568;1254;124787;-83
2023/05/15 04:04:38;;;;;;;;;;;;;;;13.26;62.19;100967.70;107461;1255;61553;-86
2023/05/15 04:07:06;;;;;;;;;;;;;;;13.32;61.97;100965.17;107437;1256;124317;-83
2023/05/15 04:09:33;;;;;;;;;;;;;;;13.39;61.87;100958.79;107782;1256;73391;-82
2023/05/15 04:12:00;;;;;;;;;;;;;;;13.47;61.72;100952.74;108039;1254;65797;-82
2023/05/15 04:14:28;;;;;;;;;;;;;;;13.57;61.70;100962.42;107905;1254;124620;-84
2023/05/15 04:16:56;;;;;;;;;;;;;;;13.68;61.33;100961.71;107800;1254;61146;-82
2023/05/15 04:19:31;;;;;;;;;;;;;;;13.77;61.17;100963.28;107849;1254;125062;-83
2023/05/15 04:21:58;;;;;;;;;;;;;;;13.88;60.90;100956.73;107922;1254;74635;-84
2023/05/15 04:24:25;;;;;;;;;;;;;;;13.99;61.02;100956.89;107592;1256;64753;-82
2023/05/15 04:26:52;;;;;;;;;;;;;;;14.11;61.19;100947.88;107491;1254;124297;-83
2023/05/15 04:29:33;;;;;;;;;;;;;;;14.18;61.21;100947.45;107706;1258;62070;-89
2023/05/15 04:32:02;;;;;;;;;;;;;;;14.26;60.92;100953.55;107685;1255;124311;-83
2023/05/15 04:34:30;;;;;;;;;;;;;;;14.32;60.66;100954.15;107824;1259;73367;-82
2023/05/15 04:36:57;;;;;;;;;;;;;;;14.39;60.51;100956.54;107834;1254;65767;-85
2023/05/15 04:39:25;;;;;;;;;;;;;;;14.47;60.43;100952.39;107810;1256;124094;-85
2023/05/15 04:41:52;;;;;;;;;;;;;;;14.53;60.33;100948.95;107995;1255;59948;-83
2023/05/15 04:44:34;;;;;;;;;;;;;;;14.60;60.21;100947.48;107965;1256;124048;-84
2023/05/15 04:47:02;;;;;;;;;;;;;;;14.67;59.90;100941.02;108031;1254;74405;-83
2023/05/15 04:49:29;;;;;;;;;;;;;;;14.75;59.90;100941.09;108074;1254;124276;-84
2023/05/15 04:51:56;;;;;;;;;;;;;;;14.82;59.75;100940.12;108066;1254;72540;-81
2023/05/15 04:54:23;;;;;;;;;;;;;;;14.90;59.63;100933.31;108479;1255;59727;-83
2023/05/15 04:56:50;;;;;;;;;;;;;;;14.98;59.52;100927.38;108292;1257;124279;-82
2023/05/15 04:59:19;;;;;;;;;;;;;;;15.06;59.26;100925.87;108562;1254;73689;-83
2023/05/15 05:01:46;;;;;;;;;;;;;;;15.14;58.99;100928.25;108448;1257;124838;-81
2023/05/15 05:04:13;;;;;;;;;;;;;;;15.22;58.77;100918.23;108203;1255;72697;-82
2023/05/15 05:06:40;;;;;;;;;;;;;;;15.32;58.64;100913.91;108397;1254;59447;-87
2023/05/15 05:09:07;;;;;;;;;;;;;;;15.42;58.44;100907.08;108107;1256;124894;-83
2023/05/15 05:11:34;;;;;;;;;;;;;;;15.47;58.20;100899.69;107817;1254;74967;-84
2023/05/15 05:14:07;;;;;;;;;;;;;;;15.53;58.02;100893.19;108089;1254;124545;-83
2023/05/15 05:16:34;;;;;;;;;;;;;;;15.61;57.93;100894.65;108108;1257;71407;-83
2023/05/15 05:19:01;;;;;;;;;;;;;;;15.70;57.87;100892.77;108093;1254;59443;-83
2023/05/15 05:21:29;;;;;;;;;;;;;;;15.79;57.61;100890.56;107934;1254;60408;-85
2023/05/15 05:23:59;;;;;;;;;;;;;;;15.87;57.38;100892.73;108072;1254;74686;-87
2023/05/15 05:26:26;;;;;;;;;;;;;;;15.94;56.91;100895.25;108311;1254;124423;-84
2023/05/15 05:28:53;;;;;;;;;;;;;;;16.01;56.61;100891.22;108128;1254;72328;-84
2023/05/15 05:31:20;;;;;;;;;;;;;;;16.10;56.40;100890.73;108236;1256;125523;-86
2023/05/15 05:33:54;;;;;;;;;;;;;;;16.15;56.10;100884.02;108018;1256;61222;-84
2023/05/15 05:36:21;;;;;;;;;;;;;;;16.18;55.72;100885.27;108276;1254;73371;-84
2023/05/15 05:38:48;;;;;;;;;;;;;;;16.19;55.55;100892.00;108354;1256;124110;-84
2023/05/15 05:41:15;;;;;;;;;;;;;;;16.19;55.60;100877.30;108361;1257;71362;-84
2023/05/15 05:43:42;;;;;;;;;;;;;;;16.19;55.53;100872.35;107898;1254;124601;-82
2023/05/15 05:46:09;;;;;;;;;;;;;;;16.17;55.56;100869.50;108348;1257;60502;-82
2023/05/15 05:48:36;;;;;;;;;;;;;;;16.14;55.64;100879.94;108149;1255;74390;-82
2023/05/15 05:51:03;;;;;;;;;;;;;;;16.12;55.80;100885.60;108047;1256;124531;-82
2023/05/15 05:53:30;;;;;;;;;;;;;;;16.16;55.87;100877.29;108195;1254;72561;-82
2023/05/15 05:55:57;;;;;;;;;;;;;;;16.17;55.72;100884.91;108019;1259;124428;-82
2023/05/15 05:58:24;;;;;;;;;;;;;;;16.16;55.86;100890.40;108271;1254;60130;-82
2023/05/15 06:00:51;;;;;;;;;;;;;;;16.15;55.96;100892.86;108868;1253;74671;-81
2023/05/15 06:03:18;;;;;;;;;;;;;;;16.14;56.08;100885.08;108919;1254;124258;-82
2023/05/15 06:05:45;;;;;;;;;;;;;;;16.16;56.10;100904.02;108905;1256;73017;-81
2023/05/15 06:08:12;;;;;;;;;;;;;;;16.12;56.23;100905.96;108726;1256;124867;-82
2023/05/15 06:10:41;;;;;;;;;;;;;;;16.10;56.46;100907.90;108667;1255;60125;-82
2023/05/15 06:13:08;;;;;;;;;;;;;;;16.10;56.50;100905.95;107762;1255;124557;-84
2023/05/15 06:15:35;;;;;;;;;;;;;;;16.10;56.39;100899.58;107863;1257;66231;-83
2023/05/15 06:18:02;;;;;;;;;;;;;;;16.11;56.16;100891.98;108001;1256;73214;-84
2023/05/15 06:20:29;;;;;;;;;;;;;;;16.13;55.97;100875.86;107802;1255;124133;-84
2023/05/15 06:22:56;;;;;;;;;;;;;;;16.15;55.97;100864.53;107429;1255;60518;-82
2023/05/15 06:25:23;;;;;;;;;;;;;;;16.16;55.92;100869.16;107537;1257;125073;-83
2023/05/15 06:27:50;;;;;;;;;;;;;;;16.17;55.60;100861.54;107629;1255;65935;-82
2023/05/15 06:30:18;;;;;;;;;;;;;;;16.19;55.59;100841.72;107901;1257;70373;-84
2023/05/15 06:32:46;;;;;;;;;;;;;;;16.23;55.07;100833.59;107638;1255;124792;-84
2023/05/15 06:35:13;;;;;;;;;;;;;;;16.39;54.69;100841.95;107766;1255;61435;-82
2023/05/15 06:37:40;;;;;;;;;;;;;;;16.53;54.36;100827.64;107512;1256;124479;-82
2023/05/15 06:40:08;;;;;;;;;;;;;;;16.67;54.11;100826.06;107548;1255;65660;-84
2023/05/15 06:42:37;;;;;;;;;;;;;;;16.80;54.15;100817.94;107640;1255;72488;-84
2023/05/15 06:45:05;;;;;;;;;;;;;;;16.84;53.89;100823.80;107687;1256;124153;-84
2023/05/15 06:47:38;;;;;;;;;;;;;;;16.87;53.73;100827.89;107691;1257;60678;-84
2023/05/15 06:50:06;;;;;;;;;;;;;;;16.92;53.54;100848.27;107664;1256;124107;-84
2023/05/15 06:52:34;;;;;;;;;;;;;;;17.00;53.74;100842.41;107691;1257;65965;-84
2023/05/15 06:55:02;;;;;;;;;;;;;;;17.10;53.67;100849.50;107523;1257;71490;-84
2023/05/15 06:57:30;;;;;;;;;;;;;;;17.16;53.49;100848.09;107461;1256;62314;-84
2023/05/15 06:59:57;;;;;;;;;;;;;;;17.23;53.33;100847.73;107481;1255;60561;-84
2023/05/15 07:02:25;;;;;;;;;;;;;;;17.30;53.08;100837.97;107257;1256;124877;-84
2023/05/15 07:04:52;;;;;;;;;;;;;;;17.36;52.79;100848.77;107387;1256;67223;-84
2023/05/15 07:07:22;;;;;;;;;;;;;;;17.42;52.63;100846.11;107194;1257;125126;-84
2023/05/15 07:09:49;;;;;;;;;;;;;;;17.44;52.45;100842.56;107432;1257;61102;-84
2023/05/15 07:12:17;;;;;;;;;;;;;;;17.49;52.19;100829.25;107417;1257;59979;-84
2023/05/15 07:14:47;;;;;;;;;;;;;;;17.55;51.69;100803.86;107286;1256;124540;-84
2023/05/15 07:17:14;;;;;;;;;;;;;;;17.51;51.30;100789.14;107448;1257;66770;-84
2023/05/15 07:19:47;;;;;;;;;;;;;;;17.47;51.40;100785.42;107451;1257;124475;-85
2023/05/15 07:22:14;;;;;;;;;;;;;;;17.45;51.15;100798.73;107570;1255;60876;-83
2023/05/15 07:24:41;;;;;;;;;;;;;;;17.51;51.29;100813.98;107591;1256;61127;-84
2023/05/15 07:27:08;;;;;;;;;;;;;;;17.63;51.51;100818.02;107357;1256;124098;-84
2023/05/15 07:29:42;;;;;;;;;;;;;;;17.73;51.28;100811.44;107520;1257;67075;-83
2023/05/15 07:32:14;;;;;;;;;;;;;;;17.82;50.97;100809.63;107113;1255;124554;-84
2023/05/15 07:34:41;;;;;;;;;;;;;;;17.87;50.72;100803.08;107353;1259;60457;-84
2023/05/15 07:37:12;;;;;;;;;;;;;;;17.95;50.54;100793.45;107333;1256;61578;-84
2023/05/15 07:39:45;;;;;;;;;;;;;;;18.06;50.39;100794.80;107612;1255;73333;-84
2023/05/15 07:42:12;;;;;;;;;;;;;;;18.19;50.24;100791.19;107521;1255;66508;-84
2023/05/15 07:44:39;;;;;;;;;;;;;;;18.34;50.21;100788.08;107528;1255;124151;-83
2023/05/15 07:47:06;;;;;;;;;;;;;;;18.47;49.86;100782.30;107707;1255;61451;-83
2023/05/15 07:49:33;;;;;;;;;;;;;;;18.59;49.60;100779.02;107548;1256;124729;-83
2023/05/15 07:52:00;;;;;;;;;;;;;;;18.71;49.22;100777.16;107757;1256;73864;-83
2023/05/15 07:54:30;;;;;;;;;;;;;;;18.81;49.04;100773.36;107340;1257;65796;-83
2023/05/15 07:56:57;;;;;;;;;;;;;;;18.92;48.87;100774.51;107415;1257;124634;-83
2023/05/15 07:59:24;;;;;;;;;;;;;;;19.01;48.67;100774.26;107607;1259;61110;-83
2023/05/15 08:01:51;;;;;;;;;;;;;;;19.08;48.65;100779.17;107553;1255;126139;-83
2023/05/15 08:04:20;;;;;;;;;;;;;;;19.11;48.43;100776.66;107954;1256;74552;-83
2023/05/15 08:06:47;;;;;;;;;;;;;;;19.13;48.23;100773.06;107940;1257;68080;-83
2023/05/15 08:09:14;;;;;;;;;;;;;;;19.11;48.17;100776.83;107489;1256;124963;-85
2023/05/15 08:11:41;;;;;;;;;;;;;;;19.09;48.35;100795.52;107385;1255;60077;-84
2023/05/15 08:14:08;;;;;;;;;;;;;;;19.07;48.55;100806.94;107315;1256;124149;-85
2023/05/15 08:16:35;;;;;;;;;;;;;;;19.02;48.69;100806.44;107260;1256;74186;-85
2023/05/15 08:19:04;;;;;;;;;;;;;;;18.98;48.71;100808.60;107636;1255;66782;-85
2023/05/15 08:21:31;;;;;;;;;;;;;;;18.92;48.59;100802.79;107717;1257;124012;-83
2023/05/15 08:23:58;;;;;;;;;;;;;;;18.88;48.44;100806.56;108927;1255;59409;-84
2023/05/15 08:26:26;;;;;;;;;;;;;;;18.89;48.64;100792.86;108741;1256;124540;-84
2023/05/15 08:28:53;;;;;;;;;;;;;;;18.95;48.50;100790.50;109000;1257;74664;-84
2023/05/15 08:31:20;;;;;;;;;;;;;;;18.99;48.29;100772.16;108869;1257;124226;-84
2023/05/15 08:33:47;;;;;;;;;;;;;;;19.05;48.16;100782.40;108798;1257;71665;-85
2023/05/15 08:36:14;;;;;;;;;;;;;;;19.08;48.14;100792.34;108986;1255;59285;-85
2023/05/15 08:38:41;;;;;;;;;;;;;;;19.09;48.14;100783.98;108928;1256;124155;-85
2023/05/15 08:41:12;;;;;;;;;;;;;;;19.14;48.12;100779.65;108966;1256;74297;-85
2023/05/15 08:43:40;;;;;;;;;;;;;;;19.17;48.13;100783.73;108956;1257;124561;-84
2023/05/15 08:46:08;;;;;;;;;;;;;;;19.16;48.01;100779.65;108179;1257;73207;-84
2023/05/15 08:48:37;;;;;;;;;;;;;;;19.16;48.05;100782.66;107678;1257;61138;-85
2023/05/15 08:51:04;;;;;;;;;;;;;;;19.16;48.10;100782.84;107811;1255;124047;-86
2023/05/15 08:53:31;;;;;;;;;;;;;;;19.26;48.29;100788.25;107490;1262;72923;-84
2023/05/15 08:55:58;;;;;;;;;;;;;;;19.37;48.33;100782.09;107378;1258;124874;-84
2023/05/15 08:58:27;;;;;;;;;;;;;;;19.48;48.49;100776.09;107557;1256;72691;-84
2023/05/15 09:00:54;;;;;;;;;;;;;;;19.59;48.29;100779.70;107965;1256;61107;-85
2023/05/15 09:03:23;;;;;;;;;;;;;;;19.67;48.00;100773.20;107657;1255;124617;-85
2023/05/15 09:05:51;;;;;;;;;;;;;;;19.72;47.94;100778.50;107688;1260;73258;-85
2023/05/15 09:08:20;;;;;;;;;;;;;;;19.80;47.88;100785.35;107595;1255;125040;-85
2023/05/15 09:10:47;;;;;;;;;;;;;;;19.87;47.55;100789.18;107710;1255;70854;-85
2023/05/15 09:13:14;;;;;;;;;;;;;;;19.90;47.55;100779.53;107674;1257;124149;-83
2023/05/15 09:15:41;;;;;;;;;;;;;;;19.95;47.50;100774.11;107807;1257;61144;-84
2023/05/15 09:18:08;;;;;;;;;;;;;;;20.07;47.57;100778.40;107945;1257;74455;-84
2023/05/15 09:20:41;;;;;;;;;;;;;;;20.21;47.33;100775.54;107667;1257;124661;-84
2023/05/15 09:23:20;;;;;;;;;;;;;;;20.24;46.80;100775.31;107707;1262;71462;-84
2023/05/15 09:25:52;;;;;;;;;;;;;;;20.29;46.79;100770.98;107486;1256;124344;-83
2023/05/15 09:28:26;;;;;;;;;;;;;;;20.38;46.70;100767.64;108074;1257;59862;-83
2023/05/15 09:30:58;;;;;;;;;;;;;;;20.49;46.41;100758.02;107966;1256;73579;-83
2023/05/15 09:33:31;;;;;;;;;;;;;;;20.52;46.38;100754.23;108123;1257;124666;-83
2023/05/15 09:35:58;;;;;;;;;;;;;;;20.57;46.26;100753.25;108030;1257;71177;-82
2023/05/15 09:38:25;;;;;;;;;;;;;;;20.60;46.23;100747.70;107598;1255;124629;-83
2023/05/15 09:41:02;;;;;;;;;;;;;;;20.60;46.22;100744.84;108086;1256;60046;-84
2023/05/15 09:43:32;;;;;;;;;;;;;;;20.55;46.17;100747.95;107820;1257;124344;-84
2023/05/15 09:45:59;;;;;;;;;;;;;;;20.52;46.15;100753.52;107982;1257;67477;-84
2023/05/15 09:48:27;;;;;;;;;;;;;;;20.49;46.35;100757.12;108043;1256;71357;-84
2023/05/15 09:50:55;;;;;;;;;;;;;;;20.44;46.39;100762.92;107782;1256;124157;-84
2023/05/15 09:53:22;;;;;;;;;;;;;;;20.36;46.53;100768.73;107987;1255;61286;-84
2023/05/15 09:55:51;;;;;;;;;;;;;;;20.39;47.01;100774.02;107999;1255;124493;-84
2023/05/15 09:58:18;;;;;;;;;;;;;;;20.45;47.13;100785.36;107898;1255;65729;-82
2023/05/15 10:00:45;;;;;;;;;;;;;;;20.52;47.50;100792.02;107994;1257;71432;-82
2023/05/15 10:03:12;;;;;;;;;;;;;;;20.58;47.32;100795.14;108032;1257;124614;-82
2023/05/15 10:05:39;;;;;;;;;;;;;;;20.53;46.94;100800.38;108234;1254;60412;-83
2023/05/15 10:08:07;;;;;;;;;;;;;;;20.45;47.04;100803.35;108218;1253;124107;-83
2023/05/15 10:10:34;;;;;;;;;;;;;;;20.35;47.24;100813.66;108057;1254;67270;-82
2023/05/15 10:13:04;;;;;;;;;;;;;;;20.17;47.47;100816.59;107893;1257;72628;-83
2023/05/15 10:15:31;;;;;;;;;;;;;;;19.91;47.64;100816.02;108030;1254;124470;-85
2023/05/15 10:17:58;;;;;;;;;;;;;;;19.64;48.28;100818.09;107717;1259;60600;-85
2023/05/15 10:20:25;;;;;;;;;;;;;;;19.44;48.94;100811.20;107609;1257;124296;-85
2023/05/15 10:22:54;;;;;;;;;;;;;;;19.25;49.45;100799.64;107756;1257;65137;-84
2023/05/15 10:25:48;;;;;;;;;;;;;;;19.00;49.88;100792.23;107667;1254;124375;-84
2023/05/15 10:28:16;;;;;;;;;;;;;;;18.69;50.34;100764.02;107250;1262;61202;-85
2023/05/15 10:30:43;;;;;;;;;;;;;;;18.47;49.83;100750.50;107424;1262;59976;-86
2023/05/15 10:33:10;;;;;;;;;;;;;;;18.08;49.87;100738.16;107211;1263;124667;-84
2023/05/15 10:35:39;;;;;;;;;;;;;;;17.80;50.32;100728.89;107391;1263;67757;-84
2023/05/15 10:38:06;;;;;;;;;;;;;;;17.47;50.55;100716.95;107376;1261;124289;-84
2023/05/15 10:40:35;;;;;;;;;;;;;;;17.22;51.09;100709.94;107595;1263;61021;-83
2023/05/15 10:43:02;;;;;;;;;;;;;;;17.03;51.48;100698.28;107245;1262;61194;-83
2023/05/15 10:45:30;;;;;;;;;;;;;;;16.86;51.69;100692.29;106924;1262;124852;-85
2023/05/15 10:47:57;;;;;;;;;;;;;;;16.74;52.13;100680.41;106880;1262;65684;-84
2023/05/15 10:50:24;;;;;;;;;;;;;;;16.65;52.57;100668.71;106864;1262;124746;-85
2023/05/15 10:52:51;;;;;;;;;;;;;;;16.59;52.83;100649.60;106897;1268;61256;-85
2023/05/15 10:55:18;;;;;;;;;;;;;;;16.55;52.91;100646.95;107019;1262;124609;-85
2023/05/15 10:57:47;;;;;;;;;;;;;;;16.48;53.14;100640.76;107341;1264;74724;-85
2023/05/15 11:00:24;;;;;;;;;;;;;;;16.39;53.36;100634.04;107388;1262;66794;-86
2023/05/15 11:02:55;;;;;;;;;;;;;;;16.33;53.68;100632.61;106932;1260;124300;-85
2023/05/15 11:05:22;;;;;;;;;;;;;;;16.28;53.68;100628.02;107586;1254;60118;-85
2023/05/15 11:08:08;;;;;;;;;;;;;;;16.25;54.09;100622.89;107521;1256;124258;-83
2023/05/15 11:10:36;;;;;;;;;;;;;;;16.26;54.25;100624.13;107905;1254;74923;-83
2023/05/15 11:13:03;;;;;;;;;;;;;;;16.24;54.42;100618.10;107493;1254;65533;-83
2023/05/15 11:15:40;;;;;;;;;;;;;;;16.25;54.68;100616.51;107455;1254;124074;-83
2023/05/15 11:18:07;;;;;;;;;;;;;;;16.24;54.85;100616.15;107714;1254;60270;-83
2023/05/15 11:20:38;;;;;;;;;;;;;;;16.22;54.99;100612.98;107471;1255;124621;-83
2023/05/15 11:23:06;;;;;;;;;;;;;;;16.22;55.12;100613.88;107590;1255;74689;-83
2023/05/15 11:25:36;;;;;;;;;;;;;;;16.26;55.30;100615.09;107626;1254;124507;-83
2023/05/15 11:28:04;;;;;;;;;;;;;;;16.27;55.37;100619.88;107410;1255;73314;-82
2023/05/15 11:30:35;;;;;;;;;;;;;;;16.26;55.50;100618.45;107507;1255;61218;-85
2023/05/15 11:33:07;;;;;;;;;;;;;;;16.27;55.59;100620.05;107180;1255;125141;-87
2023/05/15 11:36:14;;;;;;;;;;;;;;;16.31;55.99;100620.23;107192;1254;72613;-87
2023/05/15 11:38:49;;;;;;;;;;;;;;;16.37;56.13;100613.67;106696;1265;124704;-86
2023/05/15 11:41:20;;;;;;;;;;;;;;;16.48;56.50;100609.59;107383;1254;72849;-87
2023/05/15 11:43:47;;;;;;;;;;;;;;;16.57;56.20;100609.04;107242;1259;124424;-87
2023/05/15 11:49:19;;;;;;;;;;;;;;;16.71;56.27;100601.75;107295;1256;124342;-86
2023/05/15 11:51:49;;;;;;;;;;;;;;;16.70;56.32;100602.64;107405;1259;67018;-87
2023/05/15 11:54:22;;;;;;;;;;;;;;;16.66;56.57;100597.67;107590;1254;71915;-86
2023/05/15 11:56:51;;;;;;;;;;;;;;;16.62;56.62;100594.86;107497;1254;124204;-86
2023/05/15 11:59:18;;;;;;;;;;;;;;;16.51;56.33;100590.63;107435;1254;61649;-84
2023/05/15 12:01:48;;;;;;;;;;;;;;;16.40;56.36;100584.98;107268;1261;124455;-84
2023/05/15 12:04:16;;;;;;;;;;;;;;;16.39;56.70;100579.66;107828;1256;66857;-84
2023/05/15 12:06:48;;;;;;;;;;;;;;;16.41;56.91;100571.86;107862;1257;72652;-84
2023/05/15 12:09:21;;;;;;;;;;;;;;;16.39;57.05;100570.80;107361;1257;124089;-84
2023/05/15 12:11:52;;;;;;;;;;;;;;;16.39;57.33;100563.55;107546;1256;61084;-84
2023/05/15 12:14:26;;;;;;;;;;;;;;;16.42;57.24;100565.85;107376;1255;124220;-84
2023/05/15 12:16:53;;;;;;;;;;;;;;;16.41;57.46;100563.90;107312;1254;67203;-84
2023/05/15 12:19:26;;;;;;;;;;;;;;;16.42;57.69;100557.70;107289;1257;124251;-88
2023/05/15 12:21:54;;;;;;;;;;;;;;;16.37;57.81;100553.11;107427;1254;61384;-88
2023/05/15 12:24:40;;;;;;;;;;;;;;;16.30;58.00;100552.59;107635;1254;62187;-88
2023/05/15 12:27:07;;;;;;;;;;;;;;;16.25;58.34;100550.28;107521;1255;123035;-87
2023/05/15 12:29:35;;;;;;;;;;;;;;;16.20;58.59;100548.88;107543;1254;66845;-84
2023/05/15 12:32:08;;;;;;;;;;;;;;;16.18;59.02;100545.69;107538;1254;125066;-84
2023/05/15 12:34:35;;;;;;;;;;;;;;;16.16;59.22;100544.29;108016;1255;59552;-84
2023/05/15 12:37:02;;;;;;;;;;;;;;;16.14;59.43;100543.75;108122;1258;60207;-82